ENGM/OSL METAR and TAF weather

Enter ICAO airport designator
Station Type Date Time Source
ENGM METAR 2020/04/06 18:20 UTC NOAA

ENGM 061820Z 19017KT CAVOK 09/M00 Q1017 NOSIG


Station Type Date Time Source
ENGM Decoded METAR 2020/04/06 18:20 UTC NOAA

Oslo / Gardermoen, Norway (ENGM) 60-12N 011-05E 204M
Apr 06, 2020 - 02:20 PM EDT / 2020.04.06 1820 UTC
Wind: from the S (190 degrees) at 20 MPH (17 KT):0
Visibility: greater than 7 mile(s):0
Temperature: 48 F (9 C)
Dew Point: 32 F (0 C)
Relative Humidity: 53%
Pressure (altimeter): 30.03 in. Hg (1017 hPa)
ob: ENGM 061820Z 19017KT CAVOK 09/M00 Q1017 NOSIG
cycle: 18

Station Type Date Time Source
ENGM TAF 2020/04/06 18:57 UTC NOAA

TAF ENGM 061700Z 0618/0718 18012KT CAVOK
BECMG 0618/0620 VRB05KT PROB30 0700/0706 2000 -DZ BR OVC004
BECMG 0706/0708 34012KT
TEMPO 0707/0712 34015G25KT
BECMG 0712/0714 18008KT

Example: see airport list